Terminal Aerodrome Forecast
Issued by NWS

Home | Current Version | Previous Version | Text Only | Print | Product List | Glossary Off
Versions: 1 2 3 4 5 6 7 8 9 10 11 12 13 14 15 16 17 18 19

000
FTUS43 KGRB 271733
TAFRHI
TAF
KRHI 271733Z 2718/2818 13008KT P6SM OVC070
      TEMPO 2720/2724 4SM -SHRA BR BKN040 OVC070
     FM280100 13006KT P6SM VCSH SCT020 OVC035
     FM280400 14003KT 4SM BR VCSH BKN012 OVC020
      TEMPO 2804/2808 2SM -SHRA BR BKN006
     FM280900 14003KT 1 1/2SM BR VCSH BKN003 OVC015
     FM281500 17007KT 6SM BR VCSH OVC008=

USA.gov is the U.S. government's official web portal to all federal, state and local government web resources and services.